ADDS METAR Data INFO
IDs: Format: Raw Decoded Include TAF

Data at: 1530 UTC 29 Apr 2017

Region: TOP
KATL 291452Z 17008KT 10SM SCT055 SCT250 26/19 A3016 RMK AO2 SLP203 T02610194 50007

KBOS 291454Z 21011KT 10SM CLR 25/12 A2991 RMK AO2 SLP129 T02500117 58018

KBWI 291454Z 24008KT 10SM FEW027 SCT038 OVC110 24/18 A3007 RMK AO2 RAB39E50 PRESFR SLP183 P0000 60000 T02390183 50005

KCLE 291518Z 01011KT 4SM HZ BKN006 OVC017 09/06 A3019 RMK AO2 PRESRR T00890061

KCLT 291507Z 20006KT 10SM BKN015 26/21 A3021 RMK AO2 T02560206

KCVG 291452Z 10004KT 7SM FEW045 BKN075 OVC110 17/17 A3009 RMK AO2 LTG DSNT N-E RAE46 TSE32 PRESFR SLP183 MOV E P0014 60158 T01670167 50008 $

KDCA 291452Z 25008KT 10SM SCT090 OVC250 27/17 A3010 RMK AO2 SLP194 T02720172 50009

KDEN 291522Z 01011KT 1SM R35L/5000VP6000FT -SN BR SCT007 BKN012 OVC033 M01/M03 A3016 RMK AO2 TWR VIS 1 1/4 P0000 T10111028 $

KDFW 291515Z 19023G31KT 7SM BKN029 BKN038 OVC047 28/22 A2955 RMK AO2 PK WND 18035/1501 T02830217

KDTW 291453Z 07008KT 10SM OVC050 08/02 A3017 RMK AO2 SLP218 T00830017 53015

KEWR 291451Z 26017KT 10SM FEW024 FEW220 BKN250 26/18 A2998 RMK AO2 PRESFR SLP152 T02560178 50006 $

KFLL 291453Z 11018KT 10SM FEW026 BKN033 BKN250 28/21 A3015 RMK AO2 SLP208 T02830211 53009

KIAD 291452Z 21004KT 10SM FEW050 BKN095 BKN160 BKN210 26/17 A3009 RMK AO2 RAB08E19 SLP188 CB DSNT NE P0000 60000 T02560167 50000

KIAH 291453Z 16021G29KT 4SM HZ BKN019 OVC025 28/23 A2968 RMK AO2 PK WND 15032/1419 SLP048 T02780233 58003 $

KJFK 291451Z 23009KT 10SM FEW010 SCT080 SCT150 BKN250 23/20 A3001 RMK AO2 SLP162 T02280200 50008 $

KLAS 291456Z 33014KT 10SM CLR 16/M08 A3009 RMK AO2 SLP177 T01561083 53019

KLAX 291453Z 17005KT 10SM CLR 21/M07 A2998 RMK AO2 SLP151 T02061072 53019

KLGA 291451Z 26010G17KT 10SM FEW035 FEW080 SCT150 BKN250 26/18 A2999 RMK AO2 PRESFR SLP154 T02610178 50007

KMCO 291453Z 13008G16KT 10SM SCT035 BKN250 29/19 A3017 RMK AO2 SLP214 T02890194 53005

KMDW 291453Z 02018G31KT 10SM BKN031 OVC065 08/03 A3012 RMK AO2 PK WND 01031/1446 SLP202 T00780028 58012 $

KMEM 291527Z 18014G21KT 10SM BKN029 BKN037 27/22 A2990 RMK AO2 T02670217

KMIA 291453Z 11015KT 10SM SCT028 BKN040 BKN250 29/20 A3015 RMK AO2 SLP211 T02890200 53010 $

KMSP 291453Z 08012G16KT 10SM FEW200 BKN300 07/M04 A3031 RMK AO2 SLP269 T00721044 51011

KORD 291451Z 03021G28KT 10SM FEW032 SCT055 OVC180 08/01 A3013 RMK AO2 PK WND 03029/1353 SLP206 T00780006 58009

KPDX 291453Z 00000KT 10SM FEW008 FEW100 FEW200 07/05 A3032 RMK AO2 SLP265 T00720050 55001

KPHL 291454Z 23010KT 10SM FEW035 SCT080 BKN150 OVC260 25/18 A3003 RMK SLP169 T02500183 50003

KPHX 291451Z 31008G16KT 10SM CLR 18/M07 A2991 RMK AO2 SLP116 T01781072 51023

KPIT 291451Z 28007KT 10SM FEW022 SCT070 OVC140 21/18 A3008 RMK AO2 SLP190 60001 T02060178 53005 $

KSAN 291451Z 00000KT 10SM CLR 19/12 A2996 RMK AO2 SLP144 T01890122 53022

KSEA 291453Z 15004KT 10SM BKN120 07/04 A3029 RMK AO2 SLP263 T00720044 56004

KSFO 291456Z 36008KT 10SM FEW060 18/04 A3011 RMK AO2 SLP195 T01780044 53012

KSLC 291454Z 26006KT 10SM FEW050 FEW110 FEW250 07/M03 A3016 RMK AO2 SLP203 ACSL DSNT E T00721033 51016

KSTL 291451Z 03011KT 4SM +TSRA BR BKN006 OVC012CB 16/14 A2994 RMK AO2 LTG DSNT ALQDS PRESFR SLP134 OCNL LTGICCG ALQDS TS ALQDS MOV NE P0035 60046 T01560139 51025 $

KTPA 291453Z 14009G17KT 10SM SCT025 BKN300 29/21 A3013 RMK AO2 SLP202 T02940211 50001


Page loaded:  15:30 UTC  |   08:30 AM Pacific  |   09:30 AM Mountain  |   10:30 AM Central  |   11:30 AM Eastern

 

ADVISORIES

FORECASTS

FORECASTS

OBSERVATIONS

USER TOOLS

ABOUT US